createdAt,value
2022-11-16T00:02:15.829Z,96583.78
2022-11-16T00:04:43.472Z,96585.19
2022-11-16T00:07:10.938Z,96583.53
2022-11-16T00:09:38.298Z,96581.78
2022-11-16T00:12:09.699Z,96577.47
2022-11-16T00:14:37.104Z,96575.34
2022-11-16T00:17:05.086Z,96564.34
2022-11-16T00:19:32.679Z,96562.25
2022-11-16T00:22:00.176Z,96566.41
2022-11-16T00:24:27.452Z,96558.56
2022-11-16T00:26:56.235Z,96553.88
2022-11-16T00:29:26.855Z,96550.78
2022-11-16T00:31:54.892Z,96542.19
2022-11-16T00:34:23.443Z,96553.25
2022-11-16T00:36:51.000Z,96556.47
2022-11-16T00:39:19.834Z,96560.69
2022-11-16T00:41:48.046Z,96548.59
2022-11-16T00:44:15.644Z,96549.16
2022-11-16T00:46:43.248Z,96543.38
2022-11-16T00:49:10.957Z,96543.06
2022-11-16T00:51:38.686Z,96544.72
2022-11-16T00:54:08.689Z,96550.00
2022-11-16T00:56:37.935Z,96543.00
2022-11-16T00:59:06.720Z,96531.16
2022-11-16T01:01:34.405Z,96526.91
2022-11-16T01:04:02.044Z,96523.00
2022-11-16T01:06:29.403Z,96523.00
2022-11-16T01:08:56.770Z,96527.03
2022-11-16T01:11:42.771Z,96518.94
2022-11-16T01:14:11.242Z,96519.97
2022-11-16T01:16:39.091Z,96501.38
2022-11-16T01:19:07.801Z,96499.53
2022-11-16T01:21:35.518Z,96496.16
2022-11-16T01:24:02.934Z,96494.59
2022-11-16T01:26:30.270Z,96499.66
2022-11-16T01:29:00.009Z,96492.00
2022-11-16T01:31:31.134Z,96485.44
2022-11-16T01:33:59.601Z,96488.56
2022-11-16T01:36:29.558Z,96476.78
2022-11-16T01:38:59.316Z,96481.47
2022-11-16T01:41:30.816Z,96481.75
2022-11-16T01:44:33.205Z,96475.69
2022-11-16T01:47:14.999Z,96474.88
2022-11-16T01:49:51.683Z,96469.31
2022-11-16T01:52:31.323Z,96462.03
2022-11-16T01:54:59.576Z,96455.97
2022-11-16T01:57:38.124Z,96446.56
2022-11-16T02:00:12.214Z,96455.28
2022-11-16T02:02:48.472Z,96450.22
2022-11-16T02:06:09.050Z,96448.88
2022-11-16T02:09:47.128Z,96439.47
2022-11-16T02:12:54.735Z,96447.13
2022-11-16T02:15:46.453Z,96439.53
2022-11-16T02:18:34.729Z,96449.25
2022-11-16T02:21:26.549Z,96446.56
2022-11-16T02:24:21.004Z,96454.44
2022-11-16T02:27:11.111Z,96452.63
2022-11-16T02:29:40.411Z,96441.84
2022-11-16T02:32:27.556Z,96441.53
2022-11-16T02:35:10.060Z,96432.09
2022-11-16T02:37:45.660Z,96438.69
2022-11-16T02:40:18.238Z,96427.88
2022-11-16T02:43:15.577Z,96434.91
2022-11-16T02:45:48.652Z,96430.47
2022-11-16T02:48:22.826Z,96434.47
2022-11-16T02:50:55.110Z,96430.22
2022-11-16T02:53:24.513Z,96435.22
2022-11-16T02:55:53.083Z,96433.59
2022-11-16T02:58:26.045Z,96438.00
2022-11-16T03:01:08.952Z,96433.84
2022-11-16T03:03:46.638Z,96431.44
2022-11-16T03:06:25.253Z,96434.59
2022-11-16T03:09:27.272Z,96436.94
2022-11-16T03:12:00.168Z,96433.97
2022-11-16T03:14:50.575Z,96441.03
2022-11-16T03:17:30.129Z,96441.03
2022-11-16T03:20:07.700Z,96439.97
2022-11-16T03:22:47.654Z,96439.53
2022-11-16T03:25:19.655Z,96430.44
2022-11-16T03:28:15.721Z,96417.53
2022-11-16T03:30:52.873Z,96427.81
2022-11-16T03:33:28.289Z,96424.41
2022-11-16T03:36:20.854Z,96424.84
2022-11-16T03:38:52.907Z,96428.56
2022-11-16T03:41:24.480Z,96425.59
2022-11-16T03:43:55.133Z,96430.66
2022-11-16T03:46:22.620Z,96430.69
2022-11-16T03:49:00.731Z,96424.19
2022-11-16T03:51:32.417Z,96425.78
2022-11-16T03:53:59.773Z,96425.50
2022-11-16T03:56:27.985Z,96417.19
2022-11-16T03:58:55.291Z,96414.59
2022-11-16T04:01:22.713Z,96412.41
2022-11-16T04:03:50.649Z,96413.31
2022-11-16T04:06:38.688Z,96414.03
2022-11-16T04:09:24.901Z,96408.38
2022-11-16T04:12:10.762Z,96409.38
2022-11-16T04:14:57.420Z,96397.50
2022-11-16T04:17:46.352Z,96394.34
2022-11-16T04:20:34.135Z,96400.84
2022-11-16T04:23:33.983Z,96392.88
2022-11-16T04:26:02.968Z,96387.72
2022-11-16T04:28:32.757Z,96389.16
2022-11-16T04:31:24.053Z,96383.56
2022-11-16T04:34:21.361Z,96383.75
2022-11-16T04:37:11.003Z,96388.72
2022-11-16T04:39:39.834Z,96384.09
2022-11-16T04:42:19.881Z,96384.13
2022-11-16T04:45:09.219Z,96383.16
2022-11-16T04:47:44.018Z,96367.72
2022-11-16T04:50:11.750Z,96377.16
2022-11-16T04:52:40.997Z,96372.75
2022-11-16T04:55:12.436Z,96376.94
2022-11-16T04:57:40.516Z,96374.53
2022-11-16T05:00:09.722Z,96370.47
2022-11-16T05:02:39.602Z,96366.25
2022-11-16T05:05:07.605Z,96363.69
2022-11-16T05:07:36.822Z,96368.47
2022-11-16T05:10:14.833Z,96362.19
2022-11-16T05:12:42.999Z,96358.69
2022-11-16T05:15:11.207Z,96361.00
2022-11-16T05:17:39.859Z,96355.38
2022-11-16T05:20:31.787Z,96355.56
2022-11-16T05:23:03.860Z,96351.69
2022-11-16T05:25:36.917Z,96344.97
2022-11-16T05:28:07.579Z,96351.16
2022-11-16T05:30:39.120Z,96343.75
2022-11-16T05:33:06.568Z,96338.28
2022-11-16T05:35:38.413Z,96347.91
2022-11-16T05:38:06.572Z,96340.81
2022-11-16T05:40:39.002Z,96340.31
2022-11-16T05:43:06.253Z,96342.78
2022-11-16T05:45:38.931Z,96340.25
2022-11-16T05:48:07.954Z,96340.31
2022-11-16T05:50:39.816Z,96338.16
2022-11-16T05:53:16.532Z,96340.97
2022-11-16T05:55:43.834Z,96338.28
2022-11-16T05:58:11.355Z,96342.38
2022-11-16T06:00:38.606Z,96335.44
2022-11-16T06:03:09.301Z,96336.41
2022-11-16T06:05:40.501Z,96339.50
2022-11-16T06:08:09.938Z,96348.63
2022-11-16T06:10:37.257Z,96338.09
2022-11-16T06:13:05.618Z,96343.09
2022-11-16T06:15:38.620Z,96338.88
2022-11-16T06:18:08.698Z,96341.22
2022-11-16T06:20:38.684Z,96340.47
2022-11-16T06:23:07.158Z,96334.94
2022-11-16T06:25:38.148Z,96332.84
2022-11-16T06:28:07.934Z,96337.56
2022-11-16T06:30:38.226Z,96333.31
2022-11-16T06:33:06.879Z,96330.94
2022-11-16T06:35:34.318Z,96337.78
2022-11-16T06:38:03.114Z,96340.91
2022-11-16T06:40:30.543Z,96326.44
2022-11-16T06:42:57.782Z,96330.09
2022-11-16T06:45:26.750Z,96324.06
2022-11-16T06:47:56.847Z,96320.00
2022-11-16T06:50:24.313Z,96320.78
2022-11-16T06:52:52.075Z,96312.50
2022-11-16T06:55:19.523Z,96319.94
2022-11-16T06:57:48.245Z,96312.19
2022-11-16T07:00:17.421Z,96306.09
2022-11-16T07:02:45.907Z,96311.09
2022-11-16T07:05:16.401Z,96310.69
2022-11-16T07:07:45.380Z,96318.34
2022-11-16T07:10:13.278Z,96315.28
2022-11-16T07:12:41.991Z,96303.47
2022-11-16T07:15:10.045Z,96309.16
2022-11-16T07:17:42.527Z,96311.38
2022-11-16T07:20:12.107Z,96305.25
2022-11-16T07:22:40.436Z,96297.84
2022-11-16T07:25:11.429Z,96295.97
2022-11-16T07:27:38.725Z,96288.00
2022-11-16T07:30:07.035Z,96291.41
2022-11-16T07:33:01.320Z,96295.53
2022-11-16T07:35:48.918Z,96288.16
2022-11-16T07:38:18.169Z,96280.81
2022-11-16T07:40:47.643Z,96284.88
2022-11-16T07:43:17.877Z,96278.97
2022-11-16T07:46:45.823Z,96278.16
2022-11-16T07:49:17.525Z,96276.53
2022-11-16T07:51:52.560Z,96272.78
2022-11-16T07:54:42.499Z,96268.78
2022-11-16T07:57:09.854Z,96269.25
2022-11-16T07:59:40.168Z,96270.06
2022-11-16T08:02:09.048Z,96272.25
2022-11-16T08:04:38.899Z,96272.53
2022-11-16T08:07:06.461Z,96271.78
2022-11-16T08:09:39.567Z,96273.28
2022-11-16T08:12:09.302Z,96274.81
2022-11-16T08:14:36.827Z,96273.88
2022-11-16T08:17:05.167Z,96280.09
2022-11-16T08:19:32.784Z,96275.34
2022-11-16T08:22:01.411Z,96273.06
2022-11-16T08:24:31.252Z,96272.19
2022-11-16T08:26:59.116Z,96269.69
2022-11-16T08:29:27.174Z,96279.56
2022-11-16T08:31:57.021Z,96279.72
2022-11-16T08:34:24.561Z,96274.34
2022-11-16T08:36:56.715Z,96273.88
2022-11-16T08:39:30.532Z,96274.19
2022-11-16T08:41:58.933Z,96272.34
2022-11-16T08:44:26.281Z,96264.38
2022-11-16T08:46:55.828Z,96269.06
2022-11-16T08:49:32.675Z,96263.28
2022-11-16T08:52:00.342Z,96259.50
2022-11-16T08:54:29.673Z,96256.97
2022-11-16T08:56:57.397Z,96258.22
2022-11-16T08:59:24.708Z,96256.56
2022-11-16T09:01:55.585Z,96253.78
2022-11-16T09:04:23.441Z,96258.59
2022-11-16T09:06:52.878Z,96257.16
2022-11-16T09:09:20.394Z,96254.38
2022-11-16T09:11:47.715Z,96254.09
2022-11-16T09:14:14.886Z,96259.09
2022-11-16T09:16:42.043Z,96254.75
2022-11-16T09:19:10.795Z,96247.59
2022-11-16T09:21:38.064Z,96256.72
2022-11-16T09:24:05.583Z,96262.00
2022-11-16T09:26:32.972Z,96255.16
2022-11-16T09:29:03.112Z,96251.25
2022-11-16T09:31:34.834Z,96248.31
2022-11-16T09:34:02.931Z,96254.09
2022-11-16T09:36:30.841Z,96247.75
2022-11-16T09:42:01.139Z,96248.50
2022-11-16T09:45:04.869Z,96245.56
2022-11-16T09:47:57.569Z,96238.81
2022-11-16T09:50:52.827Z,96233.94
2022-11-16T09:53:34.524Z,96232.16
2022-11-16T09:56:22.352Z,96236.16
2022-11-16T09:59:18.148Z,96227.47
2022-11-16T10:01:57.256Z,96222.28
2022-11-16T10:04:43.813Z,96221.03
2022-11-16T10:07:20.463Z,96214.88
2022-11-16T10:09:48.681Z,96218.16
2022-11-16T10:12:28.635Z,96208.84
2022-11-16T10:15:26.672Z,96203.66
2022-11-16T10:18:13.254Z,96198.81
2022-11-16T10:20:55.359Z,96199.72
2022-11-16T10:23:45.424Z,96190.66
2022-11-16T10:26:39.739Z,96193.41
2022-11-16T10:29:33.654Z,96184.03
2022-11-16T10:32:19.834Z,96186.75
2022-11-16T10:35:16.750Z,96178.44
2022-11-16T10:37:51.854Z,96176.28
2022-11-16T10:40:29.397Z,96177.44
2022-11-16T10:43:17.807Z,96174.50
2022-11-16T10:46:03.572Z,96171.78
2022-11-16T10:48:41.298Z,96167.94
2022-11-16T10:51:10.739Z,96175.19
2022-11-16T10:53:43.828Z,96165.50
2022-11-16T10:56:42.633Z,96168.72
2022-11-16T10:59:13.733Z,96169.78
2022-11-16T11:01:49.987Z,96161.50
2022-11-16T11:04:25.535Z,96156.97
2022-11-16T11:06:58.391Z,96161.44
2022-11-16T11:09:33.973Z,96166.53
2022-11-16T11:12:38.234Z,96158.28
2022-11-16T11:15:11.611Z,96152.63
2022-11-16T11:17:42.111Z,96149.22
2022-11-16T11:20:15.372Z,96149.91
2022-11-16T11:23:00.141Z,96140.34
2022-11-16T11:25:56.657Z,96142.69
2022-11-16T11:28:34.041Z,96135.28
2022-11-16T11:31:25.786Z,96138.22
2022-11-16T11:34:24.848Z,96137.22
2022-11-16T11:37:25.822Z,96137.94
2022-11-16T11:40:27.634Z,96135.13
2022-11-16T11:43:01.718Z,96142.41
2022-11-16T11:45:39.586Z,96137.63
2022-11-16T11:48:54.355Z,96137.41
2022-11-16T11:51:36.867Z,96134.19
2022-11-16T11:54:07.812Z,96131.78
2022-11-16T11:56:35.360Z,96128.16
2022-11-16T11:59:04.924Z,96126.22
2022-11-16T12:02:23.020Z,96129.31
2022-11-16T12:05:20.940Z,96129.88
2022-11-16T12:08:10.527Z,96128.22
2022-11-16T12:11:04.737Z,96123.09
2022-11-16T12:13:38.549Z,96123.88
2022-11-16T12:16:37.378Z,96131.03
2022-11-16T12:19:41.689Z,96134.84
2022-11-16T12:23:19.361Z,96129.72
2022-11-16T12:26:28.592Z,96125.47
2022-11-16T12:29:37.320Z,96123.22
2022-11-16T12:32:26.301Z,96122.53
2022-11-16T12:35:22.167Z,96120.00
2022-11-16T12:38:26.387Z,96122.63
2022-11-16T12:41:34.268Z,96118.13
2022-11-16T12:44:15.659Z,96125.97
2022-11-16T12:47:24.491Z,96124.09
2022-11-16T12:50:16.167Z,96117.94
2022-11-16T12:52:50.118Z,96117.19
2022-11-16T12:55:38.213Z,96121.41
2022-11-16T12:59:05.390Z,96113.16
2022-11-16T13:01:59.125Z,96112.38
2022-11-16T13:04:57.660Z,96107.81
2022-11-16T13:08:02.097Z,96112.38
2022-11-16T13:10:35.384Z,96108.09
2022-11-16T13:16:00.767Z,96108.38
2022-11-16T13:18:29.942Z,96094.31
2022-11-16T13:21:32.747Z,96106.53
2022-11-16T13:24:40.517Z,96092.06
2022-11-16T13:27:26.267Z,96090.72
2022-11-16T13:30:05.659Z,96094.13
2022-11-16T13:32:32.837Z,96091.38
2022-11-16T13:35:03.398Z,96090.28
2022-11-16T13:37:39.699Z,96089.81
2022-11-16T13:40:06.792Z,96091.56
2022-11-16T13:42:58.662Z,96083.19
2022-11-16T13:45:53.129Z,96081.91
2022-11-16T13:48:35.372Z,96075.84
2022-11-16T13:51:16.348Z,96070.56
2022-11-16T13:56:51.621Z,96072.13
2022-11-16T13:59:27.900Z,96068.91
2022-11-16T14:02:03.850Z,96073.19
2022-11-16T14:04:57.203Z,96068.19
2022-11-16T14:07:50.005Z,96071.13
2022-11-16T14:10:35.998Z,96070.16
2022-11-16T14:13:27.525Z,96073.38
2022-11-16T14:16:19.884Z,96060.66
2022-11-16T14:18:52.253Z,96064.28
2022-11-16T14:21:40.969Z,96064.19
2022-11-16T14:24:25.283Z,96055.47
2022-11-16T14:27:31.647Z,96051.56
2022-11-16T14:30:27.034Z,96055.25
2022-11-16T14:32:56.791Z,96061.97
2022-11-16T14:35:39.816Z,96055.16
2022-11-16T14:38:29.737Z,96057.31
2022-11-16T14:40:59.885Z,96058.66
2022-11-16T14:43:42.649Z,96055.25
2022-11-16T14:46:29.906Z,96056.69
2022-11-16T14:49:01.003Z,96053.50
2022-11-16T14:51:37.339Z,96058.31
2022-11-16T14:54:40.880Z,96051.31
2022-11-16T14:57:18.211Z,96061.81
2022-11-16T14:59:45.724Z,96056.16
2022-11-16T15:02:23.619Z,96056.69
2022-11-16T15:04:53.246Z,96057.19
2022-11-16T15:07:23.760Z,96058.53
2022-11-16T15:09:55.238Z,96056.84
2022-11-16T15:12:44.505Z,96059.22
2022-11-16T15:15:15.902Z,96059.00
2022-11-16T15:17:46.871Z,96059.19
2022-11-16T15:20:23.378Z,96055.75
2022-11-16T15:22:57.935Z,96049.44
2022-11-16T15:25:31.413Z,96054.00
2022-11-16T15:28:27.360Z,96051.25
2022-11-16T15:31:01.630Z,96057.28
2022-11-16T15:33:39.281Z,96052.56
2022-11-16T15:36:24.730Z,96046.75
2022-11-16T15:38:55.756Z,96053.44
2022-11-16T15:41:25.434Z,96049.09
2022-11-16T15:44:13.448Z,96044.38
2022-11-16T15:46:45.990Z,96049.09
2022-11-16T15:49:30.453Z,96045.84
2022-11-16T15:51:59.439Z,96045.19
2022-11-16T15:54:52.616Z,96043.72
2022-11-16T15:57:24.163Z,96044.66
2022-11-16T15:59:54.909Z,96043.38
2022-11-16T16:02:27.785Z,96053.38
2022-11-16T16:04:55.166Z,96041.41
2022-11-16T16:07:43.102Z,96047.72
2022-11-16T16:10:19.637Z,96043.38
2022-11-16T16:13:01.543Z,96049.06
2022-11-16T16:15:36.263Z,96044.31
2022-11-16T16:18:14.057Z,96043.78
2022-11-16T16:20:49.075Z,96053.28
2022-11-16T16:23:24.930Z,96054.41
2022-11-16T16:25:52.196Z,96055.19
2022-11-16T16:28:19.648Z,96055.53
2022-11-16T16:30:50.467Z,96051.38
2022-11-16T16:33:19.568Z,96039.25
2022-11-16T16:35:49.928Z,96045.41
2022-11-16T16:38:17.320Z,96042.28
2022-11-16T16:40:44.733Z,96046.41
2022-11-16T16:43:11.932Z,96044.47
2022-11-16T16:45:43.550Z,96035.13
2022-11-16T16:48:12.742Z,96040.00
2022-11-16T16:50:40.069Z,96048.50
2022-11-16T16:53:10.724Z,96044.72
2022-11-16T16:55:37.983Z,96037.28
2022-11-16T16:58:05.779Z,96041.94
2022-11-16T17:00:33.130Z,96041.75
2022-11-16T17:03:00.348Z,96034.28
2022-11-16T17:05:27.716Z,96036.44
2022-11-16T17:07:56.217Z,96037.19
2022-11-16T17:10:23.640Z,96035.16
2022-11-16T17:12:54.308Z,96039.59
2022-11-16T17:15:22.303Z,96035.78
2022-11-16T17:17:49.582Z,96039.06
2022-11-16T17:20:17.374Z,96032.38
2022-11-16T17:22:45.240Z,96028.66
2022-11-16T17:25:12.719Z,96037.94
2022-11-16T17:27:40.045Z,96034.16
2022-11-16T17:30:08.409Z,96030.91
2022-11-16T17:32:35.798Z,96032.75
2022-11-16T17:35:03.329Z,96035.00
2022-11-16T17:37:30.701Z,96034.56
2022-11-16T17:39:58.210Z,96036.34
2022-11-16T17:42:25.577Z,96035.31
2022-11-16T17:44:53.991Z,96038.25
2022-11-16T17:47:21.294Z,96034.84
2022-11-16T17:49:48.505Z,96039.72
2022-11-16T17:52:15.740Z,96044.97
2022-11-16T17:54:43.129Z,96038.78
2022-11-16T17:57:10.527Z,96040.44
2022-11-16T17:59:38.010Z,96031.66
2022-11-16T18:02:05.395Z,96041.97
2022-11-16T18:04:32.799Z,96049.56
2022-11-16T18:07:01.212Z,96047.22
2022-11-16T18:09:28.941Z,96045.03
2022-11-16T18:11:56.439Z,96042.94
2022-11-16T18:14:23.765Z,96042.94
2022-11-16T18:16:51.159Z,96044.69
2022-11-16T18:19:19.873Z,96040.09
2022-11-16T18:21:48.834Z,96043.22
2022-11-16T18:24:16.355Z,96038.88
2022-11-16T18:26:44.045Z,96038.34
2022-11-16T18:29:16.135Z,96036.34
2022-11-16T18:31:43.793Z,96039.78
2022-11-16T18:34:15.377Z,96041.38
2022-11-16T18:36:42.799Z,96043.44
2022-11-16T18:39:10.087Z,96042.19
2022-11-16T18:41:43.246Z,96039.97
2022-11-16T18:44:13.647Z,96041.19
2022-11-16T18:46:42.746Z,96041.13
2022-11-16T18:49:10.180Z,96040.53
2022-11-16T18:51:37.483Z,96035.75
2022-11-16T18:54:04.981Z,96030.81
2022-11-16T18:56:32.328Z,96037.25
2022-11-16T18:58:59.734Z,96044.63
2022-11-16T19:01:27.944Z,96044.47
2022-11-16T19:03:56.365Z,96035.31
2022-11-16T19:06:24.242Z,96034.66
2022-11-16T19:08:59.590Z,96030.72
2022-11-16T19:11:28.683Z,96024.47
2022-11-16T19:14:04.404Z,96022.59
2022-11-16T19:16:32.030Z,96030.16
2022-11-16T19:18:59.695Z,96021.69
2022-11-16T19:21:27.330Z,96019.31
2022-11-16T19:23:56.654Z,96015.75
2022-11-16T19:26:27.492Z,96008.22
2022-11-16T19:28:54.907Z,96011.34
2022-11-16T19:31:28.820Z,96014.38
2022-11-16T19:34:05.797Z,96013.47
2022-11-16T19:36:35.848Z,96009.47
2022-11-16T19:39:05.255Z,96015.22
2022-11-16T19:41:32.536Z,96004.94
2022-11-16T19:44:01.808Z,96013.44
2022-11-16T19:46:32.925Z,96012.94
2022-11-16T19:49:00.562Z,96007.94
2022-11-16T19:51:33.786Z,96003.47
2022-11-16T19:54:02.759Z,96007.97
2022-11-16T19:56:30.589Z,96002.84
2022-11-16T19:58:58.344Z,96005.97
2022-11-16T20:01:29.203Z,96004.81
2022-11-16T20:04:00.140Z,96004.53
2022-11-16T20:06:33.266Z,96010.31
2022-11-16T20:09:08.865Z,96002.50
2022-11-16T20:11:40.425Z,96006.38
2022-11-16T20:14:11.987Z,96001.69
2022-11-16T20:16:42.490Z,96013.56
2022-11-16T20:19:10.968Z,96005.16
2022-11-16T20:21:43.012Z,96006.63
2022-11-16T20:24:15.441Z,96002.94
2022-11-16T20:26:47.275Z,95996.09
2022-11-16T20:29:16.912Z,96000.94
2022-11-16T20:31:45.571Z,96000.09
2022-11-16T20:34:16.404Z,96001.06
2022-11-16T20:36:45.828Z,96004.28
2022-11-16T20:39:16.575Z,96008.50
2022-11-16T20:41:44.163Z,96009.25
2022-11-16T20:44:27.042Z,96012.97
2022-11-16T20:46:54.479Z,96011.13
2022-11-16T20:49:21.748Z,96012.47
2022-11-16T20:51:50.457Z,96006.19
2022-11-16T20:54:17.839Z,96004.56
2022-11-16T20:56:45.246Z,95996.88
2022-11-16T20:59:12.833Z,95998.56
2022-11-16T21:01:41.681Z,95998.97
2022-11-16T21:04:10.921Z,96002.59
2022-11-16T21:06:38.246Z,95991.88
2022-11-16T21:09:05.550Z,96000.53
2022-11-16T21:11:52.105Z,96003.06
2022-11-16T21:14:20.513Z,95992.59
2022-11-16T21:16:47.970Z,95998.34
2022-11-16T21:19:16.299Z,95994.69
2022-11-16T21:21:43.627Z,95991.41
2022-11-16T21:24:11.448Z,95986.94
2022-11-16T21:26:39.011Z,95990.03
2022-11-16T21:29:06.809Z,95992.44
2022-11-16T21:31:36.715Z,95992.66
2022-11-16T21:34:05.911Z,95986.94
2022-11-16T21:36:34.072Z,95989.28
2022-11-16T21:39:01.461Z,95987.81
2022-11-16T21:41:29.113Z,95985.94
2022-11-16T21:43:56.881Z,95981.88
2022-11-16T21:46:26.713Z,95984.56
2022-11-16T21:48:56.600Z,95983.47
2022-11-16T21:51:27.329Z,95983.91
2022-11-16T21:53:55.536Z,95985.59
2022-11-16T21:56:26.386Z,95990.44
2022-11-16T21:58:54.674Z,95992.03
2022-11-16T22:01:23.761Z,95988.25
2022-11-16T22:04:11.551Z,95998.91
2022-11-16T22:06:57.529Z,95987.91
2022-11-16T22:09:24.806Z,95989.03
2022-11-16T22:11:52.104Z,95989.91
2022-11-16T22:14:19.362Z,95983.16
2022-11-16T22:16:46.630Z,95983.44
2022-11-16T22:19:13.860Z,95978.31
2022-11-16T22:21:41.071Z,95975.66
2022-11-16T22:24:08.665Z,95977.47
2022-11-16T22:26:38.073Z,95980.34
2022-11-16T22:29:05.348Z,95985.31
2022-11-16T22:31:33.084Z,95986.13
2022-11-16T22:34:00.312Z,95980.44
2022-11-16T22:36:27.577Z,95981.13
2022-11-16T22:38:57.248Z,95993.94
2022-11-16T22:41:25.060Z,95996.00
2022-11-16T22:43:52.329Z,95998.16
2022-11-16T22:46:19.639Z,95993.13
2022-11-16T22:48:47.986Z,95992.16
2022-11-16T22:51:30.373Z,95986.19
2022-11-16T22:54:04.408Z,95993.28
2022-11-16T22:56:33.531Z,95996.16
2022-11-16T22:59:02.462Z,95999.56
2022-11-16T23:01:29.776Z,95994.88
2022-11-16T23:03:57.131Z,95983.09
2022-11-16T23:06:24.847Z,95986.25
2022-11-16T23:08:52.131Z,95981.56
2022-11-16T23:11:43.000Z,95984.69
2022-11-16T23:14:34.086Z,95991.22
2022-11-16T23:17:02.772Z,95985.22
2022-11-16T23:19:48.774Z,95984.69
2022-11-16T23:22:38.260Z,96000.69
2022-11-16T23:25:28.384Z,95998.06
2022-11-16T23:28:16.391Z,95997.28
2022-11-16T23:30:43.724Z,95996.75
2022-11-16T23:33:11.737Z,95994.13
2022-11-16T23:35:39.206Z,95991.78
2022-11-16T23:38:07.858Z,95986.06
2022-11-16T23:40:40.020Z,95983.16
2022-11-16T23:43:28.979Z,95980.56
2022-11-16T23:45:56.422Z,95982.66
2022-11-16T23:48:23.709Z,95980.03
2022-11-16T23:50:50.995Z,95979.50
2022-11-16T23:53:18.205Z,95982.91
2022-11-16T23:55:45.432Z,95975.59
2022-11-16T23:58:15.220Z,95976.91
